Time;durP1;ratioP1;P1;durP2;ratioP2;P2;SDS_P1;SDS_P2;PMS_P1;PMS_P2;Temp;Humidity;BMP_temperature;BMP_pressure;BME280_temperature;BME280_humidity;BME280_pressure;Samples;Min_cycle;Max_cycle;Signal;HPM_P1;HPM_P2
2022/07/21 00:02:22;;;;;;;17.30;9.88;;;19.80;99.90;;;;;;5069834;28;21234;-76
2022/07/21 00:04:48;;;;;;;22.13;10.25;;;19.70;99.90;;;;;;5086174;28;20110;-76
2022/07/21 00:07:14;;;;;;;17.33;9.43;;;19.70;99.90;;;;;;5072352;28;20050;-76
2022/07/21 00:09:39;;;;;;;18.20;9.35;;;19.70;99.90;;;;;;5090121;28;20714;-76
2022/07/21 00:12:05;;;;;;;19.73;10.27;;;19.80;99.90;;;;;;5040457;28;20040;-76
2022/07/21 00:14:31;;;;;;;19.60;10.80;;;19.70;99.90;;;;;;5052791;28;20036;-76
2022/07/21 00:16:57;;;;;;;16.63;10.02;;;19.70;99.90;;;;;;5056715;28;20036;-76
2022/07/21 00:19:23;;;;;;;22.30;11.00;;;19.60;99.90;;;;;;5069618;28;20348;-76
2022/07/21 00:21:49;;;;;;;23.92;11.00;;;19.60;99.90;;;;;;5052490;28;20043;-76
2022/07/21 00:24:15;;;;;;;32.28;11.52;;;19.60;99.90;;;;;;5065463;28;20046;-76
2022/07/21 00:26:41;;;;;;;23.05;11.20;;;19.60;99.90;;;;;;5072827;28;20040;-76
2022/07/21 00:29:07;;;;;;;21.92;11.00;;;19.60;99.90;;;;;;5070243;28;20044;-76
2022/07/21 00:31:33;;;;;;;25.63;11.75;;;19.60;99.90;;;;;;5063237;28;20066;-76
2022/07/21 00:33:58;;;;;;;24.83;11.48;;;19.60;99.90;;;;;;5068539;28;20383;-76
2022/07/21 00:36:24;;;;;;;22.10;12.65;;;19.60;99.90;;;;;;5070409;28;20052;-75
2022/07/21 00:38:50;;;;;;;22.20;12.25;;;19.60;99.90;;;;;;5071220;28;20044;-76
2022/07/21 00:41:15;;;;;;;30.63;12.60;;;19.60;99.90;;;;;;5049504;28;20064;-76
2022/07/21 00:43:41;;;;;;;28.73;11.68;;;19.60;99.90;;;;;;5071033;28;20040;-76
2022/07/21 00:46:07;;;;;;;44.22;13.82;;;19.50;99.90;;;;;;5070758;28;20471;-76
2022/07/21 00:48:33;;;;;;;20.17;11.18;;;19.50;99.90;;;;;;5069954;28;20036;-76
2022/07/21 00:50:58;;;;;;;22.30;11.90;;;19.60;99.90;;;;;;5088733;28;20044;-76
2022/07/21 00:53:24;;;;;;;24.38;12.70;;;19.60;99.90;;;;;;5067043;28;20036;-76
2022/07/21 00:55:50;;;;;;;24.20;12.18;;;19.60;99.90;;;;;;5066760;28;20067;-76
2022/07/21 00:58:15;;;;;;;23.42;10.93;;;19.60;99.90;;;;;;5052614;28;20075;-76
2022/07/21 01:00:41;;;;;;;16.90;10.73;;;19.50;99.90;;;;;;5050885;28;20032;-76
2022/07/21 01:03:08;;;;;;;23.52;11.38;;;19.50;99.90;;;;;;5058102;28;20376;-76
2022/07/21 01:05:34;;;;;;;22.75;11.85;;;19.50;99.90;;;;;;5055067;28;20557;-76
2022/07/21 01:08:02;;;;;;;25.52;12.60;;;19.60;99.90;;;;;;5072030;28;20456;-76
2022/07/21 01:10:29;;;;;;;17.33;10.90;;;19.60;99.90;;;;;;5073291;28;20051;-76
2022/07/21 01:12:56;;;;;;;23.45;11.40;;;19.60;99.90;;;;;;5057264;28;20063;-75
2022/07/21 01:15:23;;;;;;;15.88;10.65;;;19.50;99.90;;;;;;5076435;28;20048;-76
2022/07/21 01:17:49;;;;;;;27.88;12.50;;;19.50;99.90;;;;;;5074769;28;20040;-76
2022/07/21 01:20:18;;;;;;;17.42;11.90;;;19.50;99.90;;;;;;5075939;28;20046;-76
2022/07/21 01:22:46;;;;;;;22.75;11.68;;;19.50;99.90;;;;;;5092121;28;20040;-76
2022/07/21 01:25:12;;;;;;;24.48;12.90;;;19.50;99.90;;;;;;5074989;28;20036;-76
2022/07/21 01:27:39;;;;;;;26.02;11.65;;;19.50;99.90;;;;;;5071305;28;20537;-76
2022/07/21 01:30:07;;;;;;;29.58;14.70;;;19.40;99.90;;;;;;5075842;28;20081;-76
2022/07/21 01:32:35;;;;;;;26.83;13.70;;;19.40;99.90;;;;;;5072009;28;20033;-76
2022/07/21 01:35:02;;;;;;;22.83;13.05;;;19.40;99.90;;;;;;5057417;28;20040;-75
2022/07/21 01:37:30;;;;;;;22.88;13.32;;;19.40;99.90;;;;;;5093047;28;20040;-75
2022/07/21 01:42:39;;;;;;;29.92;15.40;;;19.40;99.90;;;;;;5093462;28;20097;-76
2022/07/21 01:45:06;;;;;;;25.42;14.55;;;19.40;99.90;;;;;;5074051;28;20032;-76
2022/07/21 01:47:32;;;;;;;28.05;14.40;;;19.40;99.90;;;;;;5091738;28;20063;-76
2022/07/21 01:49:58;;;;;;;27.60;14.15;;;19.40;99.90;;;;;;5075652;28;20044;-75
2022/07/21 01:52:24;;;;;;;20.75;13.40;;;19.40;99.90;;;;;;5042275;28;20052;-75
2022/07/21 01:54:50;;;;;;;26.55;14.63;;;19.50;99.90;;;;;;5073605;28;20050;-76
2022/07/21 01:57:16;;;;;;;26.33;14.88;;;19.50;99.90;;;;;;5057712;28;20070;-76
2022/07/21 01:59:41;;;;;;;28.40;16.48;;;19.50;99.90;;;;;;5055268;28;20071;-76
2022/07/21 02:02:07;;;;;;;29.17;15.15;;;19.50;99.90;;;;;;5071336;28;20039;-76
2022/07/21 02:04:34;;;;;;;29.45;15.30;;;19.50;99.90;;;;;;5092621;28;20063;-76
2022/07/21 02:07:00;;;;;;;24.40;16.83;;;19.50;99.90;;;;;;5056071;28;20486;-76
2022/07/21 02:09:26;;;;;;;26.67;16.60;;;19.40;99.90;;;;;;5057601;28;20163;-75
2022/07/21 02:11:52;;;;;;;27.80;15.25;;;19.40;99.90;;;;;;5079070;28;20076;-75
2022/07/21 02:14:18;;;;;;;23.60;15.30;;;19.40;99.90;;;;;;5064061;28;20039;-76
2022/07/21 02:16:44;;;;;;;25.67;16.65;;;19.50;99.90;;;;;;5068938;28;20072;-76
2022/07/21 02:19:09;;;;;;;31.00;16.27;;;19.50;99.90;;;;;;5070189;28;20044;-76
2022/07/21 02:21:35;;;;;;;30.13;16.65;;;19.50;99.90;;;;;;5073755;28;20508;-76
2022/07/21 02:24:01;;;;;;;23.80;14.82;;;19.50;99.90;;;;;;5074263;28;20490;-76
2022/07/21 02:26:26;;;;;;;22.25;15.05;;;19.50;99.90;;;;;;5072976;28;20043;-76
2022/07/21 02:28:52;;;;;;;26.48;14.82;;;19.60;99.90;;;;;;5069773;28;20036;-76
2022/07/21 02:31:18;;;;;;;25.25;15.65;;;19.60;99.90;;;;;;5065010;28;20111;-76
2022/07/21 02:33:43;;;;;;;25.25;16.45;;;19.60;99.90;;;;;;5061595;28;20058;-76
2022/07/21 02:36:09;;;;;;;24.35;14.43;;;19.60;99.90;;;;;;5049817;28;20036;-76
2022/07/21 02:38:35;;;;;;;25.52;17.08;;;19.60;99.90;;;;;;5074245;28;20134;-76
2022/07/21 02:41:01;;;;;;;28.65;18.65;;;19.60;99.90;;;;;;5072917;28;20070;-76
2022/07/21 02:43:26;;;;;;;28.77;19.70;;;19.50;99.90;;;;;;5073714;28;20032;-76
2022/07/21 02:45:52;;;;;;;27.95;18.48;;;19.60;99.90;;;;;;5057476;28;20039;-76
2022/07/21 02:48:18;;;;;;;28.67;19.67;;;19.60;99.90;;;;;;5092301;28;20040;-76
2022/07/21 02:50:44;;;;;;;26.90;18.33;;;19.60;99.90;;;;;;5072065;28;20296;-76
2022/07/21 02:53:13;;;;;;;27.52;19.40;;;19.60;99.90;;;;;;5092828;28;20044;-76
2022/07/21 02:55:40;;;;;;;32.75;21.38;;;19.60;99.90;;;;;;5073452;28;20483;-76
2022/07/21 02:58:27;;;;;;;39.05;22.88;;;19.60;99.90;;;;;;5073587;28;20040;-76
2022/07/21 03:00:54;;;;;;;34.00;23.35;;;19.60;99.90;;;;;;5067980;28;20028;-77
2022/07/21 03:03:21;;;;;;;30.88;21.60;;;19.60;99.90;;;;;;5073909;28;20047;-76
2022/07/21 03:05:48;;;;;;;32.33;21.10;;;19.50;99.90;;;;;;5076780;28;20101;-76
2022/07/21 03:08:14;;;;;;;35.85;23.33;;;19.50;99.90;;;;;;5090683;28;20119;-76
2022/07/21 03:10:40;;;;;;;35.47;24.08;;;19.50;99.90;;;;;;5083466;28;20102;-76
2022/07/21 03:13:06;;;;;;;38.47;24.63;;;19.50;99.90;;;;;;5077754;28;20093;-76
2022/07/21 03:15:32;;;;;;;34.88;23.98;;;19.50;99.90;;;;;;5054747;28;20044;-76
2022/07/21 03:17:59;;;;;;;33.92;22.65;;;19.50;99.90;;;;;;5037712;28;20040;-76
2022/07/21 03:20:26;;;;;;;35.50;23.63;;;19.50;99.90;;;;;;5072648;28;20043;-76
2022/07/21 03:22:52;;;;;;;32.70;22.83;;;19.50;99.90;;;;;;5073871;28;20050;-76
2022/07/21 03:25:18;;;;;;;32.78;22.02;;;19.40;99.90;;;;;;5074194;28;20028;-76
2022/07/21 03:27:45;;;;;;;33.92;22.27;;;19.40;99.90;;;;;;5069630;28;20043;-76
2022/07/21 03:30:11;;;;;;;28.58;20.83;;;19.30;99.90;;;;;;5072768;28;20498;-76
2022/07/21 03:32:37;;;;;;;37.75;22.00;;;19.40;99.90;;;;;;5070024;28;20075;-76
2022/07/21 03:35:04;;;;;;;30.80;21.27;;;19.30;99.90;;;;;;5074115;28;20072;-76
2022/07/21 03:37:30;;;;;;;30.10;20.40;;;19.30;99.90;;;;;;5091957;28;20076;-76
2022/07/21 03:39:56;;;;;;;32.05;20.63;;;19.30;99.90;;;;;;5091398;28;20083;-76
2022/07/21 03:42:21;;;;;;;33.58;22.20;;;19.40;99.90;;;;;;5070822;28;20166;-76
2022/07/21 03:44:47;;;;;;;31.98;20.67;;;19.30;99.90;;;;;;5072643;28;20044;-76
2022/07/21 03:47:13;;;;;;;33.03;20.70;;;19.30;99.90;;;;;;5071671;28;20040;-76
2022/07/21 03:49:38;;;;;;;30.58;20.35;;;19.30;99.90;;;;;;5065277;28;20048;-76
2022/07/21 03:52:04;;;;;;;31.10;19.92;;;19.30;99.90;;;;;;5070156;28;20052;-76
2022/07/21 03:54:30;;;;;;;29.08;19.80;;;19.20;99.90;;;;;;5072208;28;20052;-76
2022/07/21 03:56:55;;;;;;;31.65;19.70;;;19.20;99.90;;;;;;5091276;28;20071;-76
2022/07/21 03:59:21;;;;;;;34.33;20.38;;;19.20;99.90;;;;;;5073301;28;20098;-76
2022/07/21 04:01:46;;;;;;;32.63;20.35;;;19.20;99.90;;;;;;5071773;28;20070;-76
2022/07/21 04:04:12;;;;;;;34.67;22.10;;;19.10;99.90;;;;;;5090229;28;20035;-76
2022/07/21 04:06:38;;;;;;;32.50;20.92;;;19.10;99.90;;;;;;5078439;28;20049;-75
2022/07/21 04:09:04;;;;;;;34.08;21.00;;;19.10;99.90;;;;;;5070518;28;20131;-75
2022/07/21 04:11:31;;;;;;;29.33;20.42;;;19.10;99.90;;;;;;5052368;28;20055;-75
2022/07/21 04:13:57;;;;;;;34.28;21.63;;;19.10;99.90;;;;;;5062478;28;20142;-75
2022/07/21 04:16:22;;;;;;;43.67;22.75;;;19.20;99.90;;;;;;5064091;28;20484;-75
2022/07/21 04:18:48;;;;;;;34.38;23.05;;;19.10;99.90;;;;;;5072327;28;20036;-75
2022/07/21 04:21:14;;;;;;;36.15;24.83;;;19.10;99.90;;;;;;5090373;28;20032;-75
2022/07/21 04:23:39;;;;;;;36.50;23.15;;;19.10;99.90;;;;;;5070757;28;20051;-75
2022/07/21 04:26:05;;;;;;;33.88;22.80;;;19.10;99.90;;;;;;5071818;28;20047;-75
2022/07/21 04:28:31;;;;;;;39.67;24.92;;;19.20;99.90;;;;;;5068853;28;20040;-75
2022/07/21 04:30:57;;;;;;;37.38;24.83;;;19.20;99.90;;;;;;5072374;28;20394;-75
2022/07/21 04:33:22;;;;;;;37.58;24.23;;;19.20;99.90;;;;;;5071895;28;20085;-75
2022/07/21 04:35:48;;;;;;;42.78;24.27;;;19.20;99.90;;;;;;5089784;28;20122;-75
2022/07/21 04:38:14;;;;;;;42.00;25.30;;;19.20;99.90;;;;;;5089286;28;20048;-75
2022/07/21 04:40:39;;;;;;;36.40;23.67;;;19.20;99.90;;;;;;5072260;28;20036;-75
2022/07/21 04:43:05;;;;;;;37.83;24.70;;;19.20;99.90;;;;;;5073209;28;20513;-75
2022/07/21 04:45:30;;;;;;;34.17;24.65;;;19.30;99.90;;;;;;5073173;28;20047;-75
2022/07/21 04:47:56;;;;;;;35.63;23.42;;;19.30;99.90;;;;;;5056496;28;20040;-75
2022/07/21 04:50:25;;;;;;;37.05;24.73;;;19.30;99.90;;;;;;5055999;28;20514;-75
2022/07/21 04:52:51;;;;;;;37.08;24.27;;;19.40;99.90;;;;;;5056746;28;20052;-75
2022/07/21 04:55:18;;;;;;;40.20;25.52;;;19.40;99.90;;;;;;5071132;28;20093;-75
2022/07/21 04:57:46;;;;;;;34.65;24.45;;;19.50;99.90;;;;;;5075299;28;20495;-75
2022/07/21 05:00:18;;;;;;;35.67;23.98;;;19.50;99.90;;;;;;5066987;28;20599;-75
2022/07/21 05:02:45;;;;;;;37.03;24.85;;;19.40;99.90;;;;;;5091708;28;20089;-76
2022/07/21 05:05:11;;;;;;;32.35;22.58;;;19.40;99.90;;;;;;5076083;28;20055;-76
2022/07/21 05:07:37;;;;;;;31.98;23.75;;;19.40;99.90;;;;;;5075302;28;20032;-74
2022/07/21 05:10:07;;;;;;;32.67;22.83;;;19.40;99.90;;;;;;5092301;28;20403;-74
2022/07/21 05:12:33;;;;;;;35.25;22.88;;;19.50;99.90;;;;;;5093504;28;20345;-74
2022/07/21 05:14:59;;;;;;;33.45;21.50;;;19.50;99.90;;;;;;5044225;28;20043;-74
2022/07/21 05:17:24;;;;;;;34.13;23.23;;;19.60;99.90;;;;;;5056218;28;20048;-74
2022/07/21 05:19:50;;;;;;;32.97;22.27;;;19.60;99.90;;;;;;5072387;28;20071;-74
2022/07/21 05:22:19;;;;;;;39.47;22.17;;;19.60;99.90;;;;;;5075133;28;20384;-74
2022/07/21 05:24:45;;;;;;;34.08;22.20;;;19.60;99.90;;;;;;5091102;28;20061;-74
2022/07/21 05:27:10;;;;;;;31.38;21.25;;;19.60;99.90;;;;;;5074460;28;20514;-74
2022/07/21 05:29:37;;;;;;;32.67;21.23;;;19.60;99.90;;;;;;5071557;28;20040;-74
2022/07/21 05:32:03;;;;;;;32.03;22.60;;;19.60;99.90;;;;;;5072008;28;20519;-74
2022/07/21 05:34:29;;;;;;;31.50;21.67;;;19.60;99.90;;;;;;5071422;28;20056;-74
2022/07/21 05:36:55;;;;;;;36.00;22.48;;;19.60;99.90;;;;;;5075701;28;20052;-74
2022/07/21 05:39:21;;;;;;;30.65;20.90;;;19.70;99.90;;;;;;5075106;28;20418;-74
2022/07/21 05:41:46;;;;;;;34.17;21.98;;;19.70;99.90;;;;;;5076326;28;20040;-78
2022/07/21 05:44:12;;;;;;;31.20;21.08;;;19.80;99.90;;;;;;5094972;28;20097;-77
2022/07/21 05:46:38;;;;;;;32.70;20.95;;;19.80;99.90;;;;;;5094952;28;20043;-77
2022/07/21 05:49:04;;;;;;;30.52;20.00;;;19.80;99.90;;;;;;5094305;28;20044;-78
2022/07/21 05:51:29;;;;;;;28.88;20.88;;;19.80;99.90;;;;;;5094438;28;20047;-78
2022/07/21 05:53:55;;;;;;;27.13;19.38;;;19.80;99.90;;;;;;5076246;28;20403;-79
2022/07/21 05:56:20;;;;;;;29.25;20.38;;;19.90;99.90;;;;;;5060183;28;20118;-79
2022/07/21 05:58:46;;;;;;;29.13;20.50;;;19.90;99.90;;;;;;5077388;28;20404;-79
2022/07/21 06:01:12;;;;;;;29.63;21.77;;;19.90;99.90;;;;;;5077485;28;20401;-78
2022/07/21 06:03:43;;;;;;;34.05;22.58;;;19.90;99.90;;;;;;5076481;28;20106;-78
2022/07/21 06:06:11;;;;;;;34.67;20.33;;;19.90;99.90;;;;;;5076536;28;20044;-78
2022/07/21 06:08:38;;;;;;;28.92;21.33;;;19.80;99.90;;;;;;5076055;28;20055;-78
2022/07/21 06:11:04;;;;;;;30.38;20.13;;;19.80;99.90;;;;;;5075429;28;20517;-77
2022/07/21 06:13:30;;;;;;;33.03;21.75;;;19.80;99.90;;;;;;5076468;28;20052;-78
2022/07/21 06:15:56;;;;;;;30.05;21.85;;;19.70;99.90;;;;;;5059274;28;20040;-78
2022/07/21 06:18:21;;;;;;;30.65;21.33;;;19.70;99.90;;;;;;5074883;28;20085;-78
2022/07/21 06:20:47;;;;;;;31.83;21.23;;;19.60;99.90;;;;;;5075297;28;20471;-78
2022/07/21 06:23:13;;;;;;;29.90;21.73;;;19.60;99.90;;;;;;5066584;28;20044;-78
2022/07/21 06:25:38;;;;;;;28.63;19.70;;;19.60;99.90;;;;;;5055244;28;20410;-78
2022/07/21 06:28:04;;;;;;;34.72;19.90;;;19.60;99.90;;;;;;5066745;28;20046;-78
2022/07/21 06:30:30;;;;;;;31.65;20.33;;;19.60;99.90;;;;;;5074344;28;20035;-78
2022/07/21 06:32:55;;;;;;;33.65;21.35;;;19.70;99.90;;;;;;5060438;28;20048;-78
2022/07/21 06:35:21;;;;;;;31.60;20.38;;;19.70;99.90;;;;;;5055816;28;20055;-77
2022/07/21 06:37:47;;;;;;;28.80;20.13;;;19.70;99.90;;;;;;5064705;28;20048;-78
2022/07/21 06:40:13;;;;;;;33.20;21.10;;;19.80;99.90;;;;;;5066265;28;20045;-78
2022/07/21 06:42:39;;;;;;;31.60;19.35;;;19.80;99.90;;;;;;5055238;28;20079;-78
2022/07/21 06:45:05;;;;;;;31.88;19.75;;;19.90;99.90;;;;;;5056511;28;20078;-78
2022/07/21 06:47:31;;;;;;;30.90;20.90;;;20.00;99.90;;;;;;5073236;28;20047;-78
2022/07/21 06:50:02;;;;;;;32.50;21.40;;;19.90;99.90;;;;;;5069838;28;20059;-78
2022/07/21 06:52:31;;;;;;;31.55;21.15;;;20.00;99.90;;;;;;5075700;28;20048;-78
2022/07/21 06:54:57;;;;;;;34.28;21.85;;;20.00;99.90;;;;;;5061953;28;20094;-78
2022/07/21 06:57:23;;;;;;;32.45;21.25;;;20.00;99.90;;;;;;5056425;28;20037;-78
2022/07/21 06:59:49;;;;;;;32.92;21.90;;;20.10;99.90;;;;;;5067598;28;20044;-79
2022/07/21 07:02:15;;;;;;;34.25;24.27;;;20.30;99.90;;;;;;5069881;28;20364;-78
2022/07/21 07:04:40;;;;;;;37.08;23.40;;;20.30;99.90;;;;;;5071645;28;20040;-77
2022/07/21 07:07:06;;;;;;;36.28;24.17;;;20.40;99.90;;;;;;5092291;28;20042;-78
2022/07/21 07:09:32;;;;;;;35.92;25.05;;;20.40;99.90;;;;;;5078012;28;20043;-78
2022/07/21 07:12:03;;;;;;;35.58;23.13;;;20.50;99.90;;;;;;5076771;28;20075;-79
2022/07/21 07:14:32;;;;;;;35.17;23.50;;;20.50;99.90;;;;;;5075288;28;20091;-79
2022/07/21 07:16:58;;;;;;;34.30;23.85;;;20.50;99.90;;;;;;5074377;28;20048;-78
2022/07/21 07:19:24;;;;;;;37.88;24.27;;;20.50;99.90;;;;;;5074188;28;20080;-77
2022/07/21 07:21:50;;;;;;;40.90;24.33;;;20.60;99.90;;;;;;5074589;28;20139;-79
2022/07/21 07:24:16;;;;;;;36.45;24.85;;;20.60;99.90;;;;;;5076300;28;20040;-79
2022/07/21 07:26:41;;;;;;;40.92;25.58;;;20.70;99.90;;;;;;5084510;28;20055;-78
2022/07/21 07:29:08;;;;;;;35.13;24.58;;;20.80;99.90;;;;;;5083340;28;20047;-79
2022/07/21 07:31:34;;;;;;;40.42;25.52;;;20.90;99.90;;;;;;5081326;28;20040;-78
2022/07/21 07:33:59;;;;;;;38.42;24.48;;;21.00;99.90;;;;;;5073678;28;20578;-79
2022/07/21 07:36:26;;;;;;;40.55;24.42;;;21.60;99.90;;;;;;5073910;28;20040;-79
2022/07/21 07:38:53;;;;;;;37.00;24.90;;;22.40;99.90;;;;;;5074056;28;20093;-79
2022/07/21 07:41:20;;;;;;;37.20;24.70;;;23.10;99.90;;;;;;5073980;28;20044;-79
2022/07/21 07:43:47;;;;;;;39.95;23.77;;;23.70;99.90;;;;;;5074304;28;20062;-79
2022/07/21 07:46:13;;;;;;;34.40;24.48;;;23.80;99.90;;;;;;5074905;28;20039;-79
2022/07/21 07:48:40;;;;;;;35.55;24.25;;;23.80;99.90;;;;;;5092461;28;20058;-79
2022/07/21 07:51:06;;;;;;;31.80;23.33;;;23.70;99.90;;;;;;5073721;28;20118;-79
2022/07/21 07:53:32;;;;;;;33.10;22.77;;;23.50;99.90;;;;;;5074096;28;20677;-79
2022/07/21 07:55:58;;;;;;;34.50;24.55;;;23.50;99.90;;;;;;5073678;28;20088;-79
2022/07/21 07:58:24;;;;;;;30.88;23.00;;;23.50;99.90;;;;;;5073167;28;20457;-80
2022/07/21 08:00:50;;;;;;;29.38;21.70;;;24.00;99.90;;;;;;5060420;28;20044;-80
2022/07/21 08:03:15;;;;;;;29.02;22.23;;;24.70;99.90;;;;;;5054138;28;20084;-80
2022/07/21 08:05:41;;;;;;;30.08;21.38;;;25.30;99.90;;;;;;5054426;28;20037;-80
2022/07/21 08:08:07;;;;;;;26.10;20.63;;;25.70;99.90;;;;;;5071882;28;20052;-80
2022/07/21 08:10:33;;;;;;;28.90;20.00;;;26.00;99.90;;;;;;5054404;28;20044;-80
2022/07/21 08:12:58;;;;;;;24.33;19.25;;;26.10;99.90;;;;;;5053575;28;20565;-80
2022/07/21 08:15:24;;;;;;;28.08;20.02;;;25.70;99.90;;;;;;5067695;28;20131;-80
2022/07/21 08:17:50;;;;;;;27.17;20.73;;;25.30;99.90;;;;;;5073986;28;20055;-80
2022/07/21 08:20:15;;;;;;;28.58;20.20;;;24.90;99.90;;;;;;5092213;28;20046;-75
2022/07/21 08:22:41;;;;;;;24.02;19.50;;;24.60;99.90;;;;;;5073279;28;20045;-75
2022/07/21 08:25:07;;;;;;;24.83;19.40;;;24.70;99.90;;;;;;5072099;28;20093;-75
2022/07/21 08:27:32;;;;;;;26.58;20.95;;;24.80;99.90;;;;;;5089172;28;20035;-75
2022/07/21 08:29:58;;;;;;;26.35;20.67;;;24.70;99.90;;;;;;5064923;28;20047;-75
2022/07/21 08:32:24;;;;;;;26.00;19.10;;;24.40;99.90;;;;;;5069456;28;20071;-75
2022/07/21 08:34:50;;;;;;;27.52;19.13;;;24.20;99.90;;;;;;5067257;28;20097;-74
2022/07/21 08:37:18;;;;;;;26.27;19.77;;;24.20;99.90;;;;;;5084529;28;20032;-75
2022/07/21 08:39:44;;;;;;;26.05;18.48;;;24.60;99.90;;;;;;5066461;28;20513;-75
2022/07/21 08:42:12;;;;;;;23.92;19.50;;;25.20;99.90;;;;;;5068091;28;20032;-77
2022/07/21 08:44:37;;;;;;;21.88;17.33;;;25.60;99.90;;;;;;5067471;28;20054;-77
2022/07/21 08:47:04;;;;;;;25.73;19.75;;;26.10;99.90;;;;;;5067570;28;20032;-77
2022/07/21 08:49:33;;;;;;;20.42;17.13;;;26.00;99.90;;;;;;5066231;28;20044;-77
2022/07/21 08:51:58;;;;;;;21.75;18.23;;;25.90;99.90;;;;;;5071043;28;20048;-77
2022/07/21 08:54:24;;;;;;;24.35;17.92;;;25.80;99.90;;;;;;5065704;28;20044;-76
2022/07/21 08:56:50;;;;;;;24.77;17.85;;;25.60;99.90;;;;;;5072615;28;20076;-80
2022/07/21 08:59:16;;;;;;;24.15;18.05;;;25.30;99.90;;;;;;5064538;28;20045;-79
2022/07/21 09:01:41;;;;;;;21.50;17.08;;;25.10;99.90;;;;;;5057501;28;20159;-79
2022/07/21 09:04:40;;;;;;;22.05;15.90;;;24.90;99.90;;;;;;5087866;28;20045;-79
2022/07/21 09:07:07;;;;;;;20.45;16.08;;;24.70;99.90;;;;;;5040525;28;20483;-79
2022/07/21 09:09:34;;;;;;;24.80;17.85;;;24.50;99.90;;;;;;5072587;28;20558;-79
2022/07/21 09:12:02;;;;;;;28.60;19.95;;;24.30;99.90;;;;;;5090293;28;20066;-79
2022/07/21 09:14:33;;;;;;;29.55;20.10;;;24.20;99.90;;;;;;5090731;28;20441;-79
2022/07/21 09:17:04;;;;;;;29.17;20.90;;;24.10;99.90;;;;;;5073735;28;20051;-79
2022/07/21 09:19:33;;;;;;;30.77;22.27;;;24.00;99.90;;;;;;5056270;28;20094;-80
2022/07/21 09:22:01;;;;;;;31.55;21.85;;;23.80;99.90;;;;;;5073170;28;20066;-79
2022/07/21 09:24:32;;;;;;;30.38;21.65;;;23.60;99.90;;;;;;5089801;28;20119;-79
2022/07/21 09:27:24;;;;;;;35.13;23.83;;;23.30;99.90;;;;;;5072787;28;20408;-79
2022/07/21 09:29:49;;;;;;;;;;;23.10;99.90;;;;;;5055717;28;20056;-79
2022/07/21 09:32:21;;;;;;;34.40;22.77;;;22.80;99.90;;;;;;5076798;28;19927;-79
2022/07/21 09:34:49;;;;;;;36.60;24.98;;;22.70;99.90;;;;;;5076954;28;20086;-79
2022/07/21 09:37:16;;;;;;;34.95;23.20;;;22.60;99.90;;;;;;5076608;28;20495;-79
2022/07/21 09:39:53;;;;;;;37.67;25.15;;;22.50;99.90;;;;;;5058850;28;20407;-79
2022/07/21 09:42:21;;;;;;;40.50;24.92;;;22.30;99.90;;;;;;5076339;28;20450;-79
2022/07/21 09:45:20;;;;;;;42.25;25.40;;;22.20;99.90;;;;;;5076829;28;20071;-79
2022/07/21 09:47:46;;;;;;;37.65;23.85;;;22.20;99.90;;;;;;5074647;28;20078;-80
2022/07/21 09:50:14;;;;;;;33.50;22.70;;;22.20;99.90;;;;;;5077400;28;20253;-79
2022/07/21 09:52:42;;;;;;;37.13;24.30;;;22.20;99.90;;;;;;5076153;28;20078;-80
2022/07/21 09:55:15;;;;;;;35.63;23.20;;;22.30;99.90;;;;;;5077490;28;20099;-80
2022/07/21 09:57:41;;;;;;;39.45;24.70;;;22.40;99.90;;;;;;5077036;28;20119;-79
2022/07/21 10:00:16;;;;;;;38.58;24.10;;;22.50;99.90;;;;;;5092541;28;20119;-79
2022/07/21 10:02:43;;;;;;;33.88;23.75;;;22.60;99.90;;;;;;5095098;28;20040;-80
2022/07/21 10:05:14;;;;;;;35.95;24.00;;;22.90;99.90;;;;;;5076335;28;20036;-79
2022/07/21 10:07:45;;;;;;;30.52;22.30;;;23.20;99.90;;;;;;5059178;28;20050;-79
2022/07/21 10:10:12;;;;;;;35.50;23.17;;;23.40;99.90;;;;;;5075497;28;20051;-79
2022/07/21 10:12:38;;;;;;;37.42;24.40;;;23.50;99.90;;;;;;5075866;28;20055;-79
2022/07/21 10:15:04;;;;;;;36.63;23.42;;;23.50;99.90;;;;;;5076155;28;20425;-80
2022/07/21 10:17:30;;;;;;;37.55;24.70;;;23.40;99.90;;;;;;5076485;28;20051;-79
2022/07/21 10:20:15;;;;;;;41.65;24.92;;;23.20;99.90;;;;;;5074844;28;20032;-78
2022/07/21 10:23:18;;;;;;;41.05;25.83;;;22.90;99.90;;;;;;5075653;28;20044;-78
2022/07/21 10:25:45;;;;;;;49.25;26.88;;;22.60;99.90;;;;;;5075028;28;20044;-79
2022/07/21 10:28:11;;;;;;;40.78;25.98;;;22.30;99.90;;;;;;5075318;28;20055;-79
2022/07/21 10:30:51;;;;;;;45.85;27.15;;;22.00;99.90;;;;;;5075782;28;20047;-79
2022/07/21 10:33:22;;;;;;;45.20;27.58;;;21.80;99.90;;;;;;5074868;28;20126;-79
2022/07/21 10:35:50;;;;;;;41.65;26.42;;;21.60;99.90;;;;;;5076762;28;20253;-80
2022/07/21 10:38:33;;;;;;;45.08;27.17;;;21.40;99.90;;;;;;5093691;28;20048;-79
2022/07/21 10:41:00;;;;;;;43.25;27.38;;;21.30;99.90;;;;;;5076463;28;20071;-79
2022/07/21 10:43:25;;;;;;;41.70;25.88;;;21.20;99.90;;;;;;5075028;28;20047;-78
2022/07/21 10:45:53;;;;;;;41.80;24.35;;;21.10;99.90;;;;;;5075125;28;20036;-79
2022/07/21 10:48:37;;;;;;;40.25;22.52;;;21.00;99.90;;;;;;5058281;28;20048;-78
2022/07/21 10:51:11;;;;;;;48.22;27.27;;;20.80;99.90;;;;;;5074248;28;20116;-78
2022/07/21 10:53:37;;;;;;;48.25;28.40;;;20.50;99.90;;;;;;5075326;28;20055;-78
2022/07/21 10:56:04;;;;;;;45.33;25.58;;;20.40;99.90;;;;;;5076759;28;20070;-78
2022/07/21 10:58:31;;;;;;;40.83;23.73;;;20.30;99.90;;;;;;5094023;28;20040;-78
2022/07/21 11:00:59;;;;;;;31.60;21.13;;;20.30;99.90;;;;;;5076166;28;20048;-78
2022/07/21 11:03:31;;;;;;;37.58;21.02;;;20.20;99.90;;;;;;5076586;28;20046;-78
2022/07/21 11:06:09;;;;;;;36.65;21.73;;;20.30;99.90;;;;;;5073802;28;20097;-78
2022/07/21 11:08:37;;;;;;;41.25;24.45;;;20.40;99.90;;;;;;5073793;28;20499;-81
2022/07/21 11:11:12;;;;;;;39.45;23.73;;;20.50;99.90;;;;;;5091278;28;20132;-80
2022/07/21 11:13:57;;;;;;;43.67;25.30;;;20.60;99.90;;;;;;5073470;28;20123;-78
2022/07/21 11:16:22;;;;;;;43.45;24.52;;;20.70;99.90;;;;;;5091699;28;20044;-78
2022/07/21 11:18:48;;;;;;;40.15;24.95;;;20.70;99.90;;;;;;5073372;28;20392;-78
2022/07/21 11:21:15;;;;;;;41.22;24.27;;;20.80;99.90;;;;;;5074195;28;20032;-78
2022/07/21 11:23:47;;;;;;;40.25;25.05;;;20.80;99.90;;;;;;5075109;28;20036;-77
2022/07/21 11:26:16;;;;;;;43.42;26.00;;;20.90;99.90;;;;;;5074146;28;20369;-78
2022/07/21 11:28:42;;;;;;;44.28;26.70;;;20.90;99.90;;;;;;5074626;28;20123;-77
2022/07/21 11:31:18;;;;;;;39.70;25.48;;;21.00;99.90;;;;;;5073390;28;20445;-78
2022/07/21 11:33:46;;;;;;;44.80;27.60;;;21.10;99.90;;;;;;5073774;28;20076;-78
2022/07/21 11:36:27;;;;;;;38.85;25.70;;;21.20;99.90;;;;;;5073375;28;20044;-78
2022/07/21 11:39:05;;;;;;;41.20;25.33;;;21.30;99.90;;;;;;5074399;28;20040;-78
2022/07/21 11:41:31;;;;;;;45.33;25.73;;;21.30;99.90;;;;;;5074577;28;20441;-78
2022/07/21 11:43:57;;;;;;;34.78;23.13;;;21.40;99.90;;;;;;5057312;28;20119;-79
2022/07/21 11:46:23;;;;;;;33.40;21.75;;;21.40;99.90;;;;;;5074384;28;20123;-80
2022/07/21 11:48:59;;;;;;;31.60;22.42;;;21.30;99.90;;;;;;5093594;28;20044;-79
2022/07/21 11:51:25;;;;;;;34.15;21.15;;;21.30;99.90;;;;;;5074506;28;20055;-80
2022/07/21 11:53:50;;;;;;;33.15;19.75;;;21.30;99.90;;;;;;5074643;28;20130;-79
2022/07/21 11:56:16;;;;;;;30.33;20.02;;;21.30;99.90;;;;;;5092431;28;20615;-78
2022/07/21 11:58:43;;;;;;;31.25;19.95;;;21.40;99.90;;;;;;5074414;28;20570;-79
2022/07/21 12:01:10;;;;;;;30.23;19.70;;;21.50;99.90;;;;;;5090446;28;20051;-80
2022/07/21 12:03:47;;;;;;;31.40;19.05;;;21.70;99.90;;;;;;5090928;28;20040;-80
2022/07/21 12:06:14;;;;;;;28.63;17.65;;;21.80;99.90;;;;;;5073547;28;20101;-79
2022/07/21 12:08:41;;;;;;;24.48;17.08;;;21.90;99.90;;;;;;5091919;28;20044;-79
2022/07/21 12:11:08;;;;;;;23.40;15.50;;;21.90;99.90;;;;;;5073650;28;20087;-79
2022/07/21 12:13:53;;;;;;;26.63;16.73;;;21.80;99.90;;;;;;5091773;28;20040;-79
2022/07/21 12:16:18;;;;;;;26.48;16.65;;;21.90;99.90;;;;;;5074000;28;20051;-80
2022/07/21 12:18:44;;;;;;;28.30;17.67;;;21.90;99.90;;;;;;5074049;28;20078;-80
2022/07/21 12:21:10;;;;;;;24.20;16.73;;;22.00;99.90;;;;;;5073671;28;20167;-79
2022/07/21 12:23:36;;;;;;;25.45;16.92;;;22.00;99.90;;;;;;5091828;28;20185;-80
2022/07/21 12:26:03;;;;;;;25.42;16.13;;;21.90;99.90;;;;;;5074186;28;20052;-80
2022/07/21 12:28:52;;;;;;;26.30;17.02;;;21.90;99.90;;;;;;5073252;28;20123;-80
2022/07/21 12:31:23;;;;;;;27.10;16.90;;;21.90;99.90;;;;;;5073434;28;20044;-80
2022/07/21 12:33:55;;;;;;;27.33;16.30;;;21.90;99.90;;;;;;5073835;28;20051;-80